Pagina principale
METAR-TAF:

METAR-TAF

Aeroporti :

Air Force Base Waterkloof

Waterkloof, Sudafrica

latitudine: 25-50S, longitudine: 028-13E, altezza: 1498 m

Osservazione

Il bollettino è stato emesso 6 ore e 6 minuti fa, alle 11:00 UTC
Vento 7 kt da sud/sud-est
Temperature
Pressione 1030 hPa

METAR: FAWK 181100Z AUTO 15007KT //// // ////// ///// Q1030

Ora: 19:06 (17:06 UTC)

Previsione

Il bollettino è stato emesso 10 ore e 36 minuti fa, alle 06:30 UTC
Previsione valida dal 18 alle 07 UTC al 18 alle 18 UTC
Vento 3 kt da direzioni variabili
Visibilità 10 km o più
nessuna nube inferiore a 1500 m e nessun cumulonembo
Evoluzione graduale
dal 18 alle 08 UTC al 18 alle 10 UTC
Vento 8 kt da sud-est

TAF: FAWK 180630Z 1807/1818 VRB03KT CAVOK TX21/1812Z TN10/1807Z BECMG 1808/1810 13008KT

Osservazioni e previsioni meteorologiche di più di 4000 aeroporti (messaggi METAR e TAF).

Le stazioni disponibili sono rappresentate dai dischi gialli e rossi sulla carta.

Puntare il mouse per vedere il nome della stazione.

Clicca sopra per visualizzare le osservazioni e previsioni meteorologiche.

Per cambiare la mappa : fare clic sui pulsanti verdi con una croce nera per ingrandire, il pulsante verde con un trattino per diminuire, o sulla freccia verde per le mappe adiacenti.


METAR-TAF: